This is the latest recevied weather packets stored in our database for station/object GW1699. If no packets are shown the sender has not sent any weather packets the latest 10 day(s).
| Time | Temp. | Humidity | Pressure | Rain* | Wind** | Luminosity | Snow |
|---|---|---|---|---|---|---|---|
| 1777902871 | 16.11° C | 55% | 1012.1 hPa | 0 mm | - | - | - |
| 1777902164 | 16.11° C | 54% | 1012.1 hPa | 0 mm | - | - | - |
| 1777898905 | 13.89° C | 61% | 1011.8 hPa | 0 mm | - | - | - |
| 1777896405 | 9.44° C | 84% | 1012.1 hPa | 0 mm | - | - | - |
| 1777895324 | 8.89° C | 86% | 1012.1 hPa | 0 mm | - | - | - |
| 1777892430 | 7.22° C | 92% | 1012.5 hPa | 0 mm | - | - | - |
| 1777888488 | 7.22° C | 91% | 1012.5 hPa | 0 mm | - | - | - |
| 1777888097 | 7.22° C | 91% | 1012.8 hPa | 0 mm | - | - | - |
| 1777885574 | 7.78° C | 88% | 1012.8 hPa | 0 mm | - | - | - |
| 1777884142 | 7.78° C | 85% | 1013.2 hPa | 0 mm | - | - | - |
| 1777882695 | 8.33° C | 86% | 1012.8 hPa | 0 mm | - | - | - |
| 1777882336 | 8.33° C | 85% | 1013.2 hPa | 0 mm | - | - | - |
| 1777880176 | 8.89° C | 79% | 1013.2 hPa | 0 mm | - | - | - |
| 1777873000 | 8.33° C | 78% | 1013.5 hPa | 0 mm | - | - | - |
| 1777868671 | 8.33° C | 70% | 1013.5 hPa | 0 mm | - | - | - |
| 1777867605 | 8.33° C | 71% | 1013.5 hPa | 0 mm | - | - | - |
| 1777865773 | 8.89° C | 72% | 1013.8 hPa | 0 mm | - | - | - |
| 1777865436 | 8.89° C | 73% | 1013.8 hPa | 0 mm | - | - | - |
| 1777863254 | 8.89° C | 70% | 1013.5 hPa | 0 mm | - | - | - |
| 1777862540 | 8.89° C | 71% | 1013.8 hPa | 0 mm | - | - | - |
| 1777861827 | 8.89° C | 66% | 1013.5 hPa | 0 mm | - | - | - |
| 1777861114 | 8.89° C | 68% | 1013.8 hPa | 0 mm | - | - | - |
| 1777860380 | 9.44° C | 74% | 1013.8 hPa | 0 mm | - | - | - |
| 1777857134 | 10° C | 67% | 1013.8 hPa | 0 mm | - | - | - |
| 1777856079 | 10° C | 67% | 1013.8 hPa | 0 mm | - | - | - |
* Rain since midnight (hover to see other rain measurements)
** Current wind speed in m/s (hover to see current wind gust speed)